Lewiston, ID (83501)

11:09 PM PDT on May 23, 2015 (GMT -0700)
Hepton Lane | | Change Station
CLOSE
Current Station
Personal Weather Station
Location: Lewiston, ID
Elevation: 1358 ft
Nearby Weather Stations

Elev 1358 ft 46.40 °N, 116.93 °W | Updated 12 seconds ago

Clear
Clear
60.3 °F
Feels Like 60.3 °F
N
0.0
Wind Variable Wind from SE
Gusts 0.0 mph

Today
High -- | Low -- °F
--% Chance of Precip.
Yesterday
High -- | Low -- °F
Precip. -- in
5:06 AM 8:23 PM
Waxing Crescent, 36% visible
Pressure 29.96 in
Visibility 10.0 miles
Clouds Clear
Dew Point 56 °F
Humidity 86%
Rainfall 0.02 in
Snow Depth Not available.
UV 0.0 out of 12
Pollen 8.20 out of 12
Air Quality Not available.
Flu Activity Sporadic
METAR KLWS 240556Z AUTO 07006KT 10SM CLR 17/13 A2998 RMK AO2 LTG DSNT N AND NW SLP146 60006 T01670128 10261 20167 51007

More Conditions Fewer Conditions

Pressure 29.96 in
Visibility 10.0 miles
Clouds Clear
Dew Point 56 °F
Humidity 86%
Rainfall 0.02 in
Snow Depth Not available.
UV 0.0 out of 12
Pollen 8.20 out of 12
Air Quality Not available.
Flu Activity Sporadic
METAR KLWS 240556Z AUTO 07006KT 10SM CLR 17/13 A2998 RMK AO2 LTG DSNT N AND NW SLP146 60006 T01670128 10261 20167 51007

More Conditions Fewer Conditions

Nowcast | as of 9:14 PM PDT on May 23, 2015

At 907 PM...thunderstorms over Latah County in the Harvard and Potlatch areas will drift to the southwest around 20 mph. Cells this evening have been capable of producing dime size hail and torrential rain for brief periods...then cells weaken...as other new cells develop. We should see a general weakening of thunderstorms between 915 PM and 10 PM...as temperatures cool...and thunderstorms lose their fuel for strong updrafts.

×

10-Day Weather Forecast

Almanac

Astronomy

May. 23, 2015 Rise Set
Actual Time
Civil Twilight
Nautical Twilight
Astronomical Twilight
Moon
Length of Visible Light
Length of Day
Tomorrow will be .
, % of the Moon is Illuminated

Today's Extremes

State Highs State Lows

Community

WunderPhotos

Upload Photos

1,823,694 photos uploaded!

WunderBlogs® & News

Nearby

Air Quality

  Air Quality AQ Index Pollutant
Not available.

Snow Depth

Station Depth Elevation

Earthquake Activity

City Distance Mag. Time & Date
Minimum magnitude displayed is 2.5.

Coastal Water Temperatures

Place Temperature

Stations

Nearby Weather Stations

Station Location Temp. Windchill Dew Point Humidity Wind Precip. Elev Updated Type